sensor_id;sensor_type;location;lat;lon;timestamp;P1;durP1;ratioP1;P2;durP2;ratioP2
5989;SDS011;14149;53.562;10.032;2022-12-07T00:01:34;22.77;;;12.67;;
5989;SDS011;14149;53.562;10.032;2022-12-07T00:04:02;26.10;;;14.10;;
5989;SDS011;14149;53.562;10.032;2022-12-07T00:08:57;23.47;;;11.80;;
5989;SDS011;14149;53.562;10.032;2022-12-07T00:11:24;27.20;;;15.13;;
5989;SDS011;14149;53.562;10.032;2022-12-07T00:13:51;22.83;;;13.67;;
5989;SDS011;14149;53.562;10.032;2022-12-07T00:16:18;22.27;;;12.50;;
5989;SDS011;14149;53.562;10.032;2022-12-07T00:18:45;26.53;;;13.70;;
5989;SDS011;14149;53.562;10.032;2022-12-07T00:21:21;17.73;;;10.20;;
5989;SDS011;14149;53.562;10.032;2022-12-07T00:23:48;24.60;;;15.00;;
5989;SDS011;14149;53.562;10.032;2022-12-07T00:26:16;20.27;;;12.40;;
5989;SDS011;14149;53.562;10.032;2022-12-07T00:28:49;26.20;;;14.43;;
5989;SDS011;14149;53.562;10.032;2022-12-07T00:31:16;20.93;;;10.73;;
5989;SDS011;14149;53.562;10.032;2022-12-07T00:33:42;26.17;;;15.43;;
5989;SDS011;14149;53.562;10.032;2022-12-07T00:36:09;23.47;;;11.57;;
5989;SDS011;14149;53.562;10.032;2022-12-07T00:38:36;20.27;;;12.37;;
5989;SDS011;14149;53.562;10.032;2022-12-07T00:41:19;22.70;;;12.50;;
5989;SDS011;14149;53.562;10.032;2022-12-07T00:43:46;21.23;;;12.50;;
5989;SDS011;14149;53.562;10.032;2022-12-07T00:46:12;24.17;;;12.93;;
5989;SDS011;14149;53.562;10.032;2022-12-07T00:48:39;26.27;;;13.93;;
5989;SDS011;14149;53.562;10.032;2022-12-07T00:51:05;22.80;;;12.40;;
5989;SDS011;14149;53.562;10.032;2022-12-07T00:53:33;26.03;;;14.13;;
5989;SDS011;14149;53.562;10.032;2022-12-07T00:56:07;20.77;;;11.73;;
5989;SDS011;14149;53.562;10.032;2022-12-07T00:58:34;27.50;;;14.03;;
5989;SDS011;14149;53.562;10.032;2022-12-07T01:01:00;22.47;;;13.80;;
5989;SDS011;14149;53.562;10.032;2022-12-07T01:03:27;23.13;;;12.40;;
5989;SDS011;14149;53.562;10.032;2022-12-07T01:05:53;21.97;;;11.77;;
5989;SDS011;14149;53.562;10.032;2022-12-07T01:08:20;21.47;;;12.30;;
5989;SDS011;14149;53.562;10.032;2022-12-07T01:10:46;23.07;;;12.30;;
5989;SDS011;14149;53.562;10.032;2022-12-07T01:13:13;20.80;;;10.90;;
5989;SDS011;14149;53.562;10.032;2022-12-07T01:15:43;22.87;;;11.97;;
5989;SDS011;14149;53.562;10.032;2022-12-07T01:18:09;18.63;;;11.37;;
5989;SDS011;14149;53.562;10.032;2022-12-07T01:20:36;19.93;;;10.90;;
5989;SDS011;14149;53.562;10.032;2022-12-07T01:23:02;21.57;;;10.30;;
5989;SDS011;14149;53.562;10.032;2022-12-07T01:25:29;22.67;;;11.77;;
5989;SDS011;14149;53.562;10.032;2022-12-07T01:27:55;23.03;;;11.60;;
5989;SDS011;14149;53.562;10.032;2022-12-07T01:30:22;19.83;;;10.90;;
5989;SDS011;14149;53.562;10.032;2022-12-07T01:32:48;19.47;;;10.47;;
5989;SDS011;14149;53.562;10.032;2022-12-07T01:35:14;20.17;;;11.70;;
5989;SDS011;14149;53.562;10.032;2022-12-07T01:37:40;20.10;;;11.67;;
5989;SDS011;14149;53.562;10.032;2022-12-07T01:40:07;18.53;;;9.30;;
5989;SDS011;14149;53.562;10.032;2022-12-07T01:42:34;19.27;;;10.90;;
5989;SDS011;14149;53.562;10.032;2022-12-07T01:47:47;24.57;;;11.70;;
5989;SDS011;14149;53.562;10.032;2022-12-07T01:50:14;19.40;;;8.97;;
5989;SDS011;14149;53.562;10.032;2022-12-07T01:52:40;20.23;;;10.73;;
5989;SDS011;14149;53.562;10.032;2022-12-07T01:55:08;20.07;;;10.93;;
5989;SDS011;14149;53.562;10.032;2022-12-07T01:57:36;22.00;;;12.90;;
5989;SDS011;14149;53.562;10.032;2022-12-07T02:00:03;18.80;;;9.97;;
5989;SDS011;14149;53.562;10.032;2022-12-07T02:02:31;19.53;;;10.33;;
5989;SDS011;14149;53.562;10.032;2022-12-07T02:04:58;17.37;;;9.17;;
5989;SDS011;14149;53.562;10.032;2022-12-07T02:07:25;20.47;;;9.43;;
5989;SDS011;14149;53.562;10.032;2022-12-07T02:09:51;18.87;;;11.73;;
5989;SDS011;14149;53.562;10.032;2022-12-07T02:12:18;18.90;;;11.17;;
5989;SDS011;14149;53.562;10.032;2022-12-07T02:14:44;19.27;;;9.90;;
5989;SDS011;14149;53.562;10.032;2022-12-07T02:17:13;21.87;;;9.53;;
5989;SDS011;14149;53.562;10.032;2022-12-07T02:24:55;18.33;;;9.97;;
5989;SDS011;14149;53.562;10.032;2022-12-07T02:29:53;21.90;;;10.10;;
5989;SDS011;14149;53.562;10.032;2022-12-07T02:34:58;18.33;;;10.13;;
5989;SDS011;14149;53.562;10.032;2022-12-07T02:37:43;17.53;;;7.93;;
5989;SDS011;14149;53.562;10.032;2022-12-07T02:42:46;13.03;;;7.63;;
5989;SDS011;14149;53.562;10.032;2022-12-07T02:45:13;17.03;;;6.80;;
5989;SDS011;14149;53.562;10.032;2022-12-07T02:47:41;13.97;;;6.13;;
5989;SDS011;14149;53.562;10.032;2022-12-07T02:50:07;10.33;;;5.80;;
5989;SDS011;14149;53.562;10.032;2022-12-07T02:52:33;14.80;;;5.73;;
5989;SDS011;14149;53.562;10.032;2022-12-07T02:54:59;11.03;;;4.40;;
5989;SDS011;14149;53.562;10.032;2022-12-07T03:00:04;8.90;;;3.90;;
5989;SDS011;14149;53.562;10.032;2022-12-07T03:10:13;11.50;;;4.07;;
5989;SDS011;14149;53.562;10.032;2022-12-07T03:15:24;10.63;;;4.73;;
5989;SDS011;14149;53.562;10.032;2022-12-07T03:17:51;9.20;;;4.53;;
5989;SDS011;14149;53.562;10.032;2022-12-07T03:20:20;8.60;;;4.13;;
5989;SDS011;14149;53.562;10.032;2022-12-07T03:22:47;8.50;;;3.73;;
5989;SDS011;14149;53.562;10.032;2022-12-07T03:25:14;8.60;;;3.70;;
5989;SDS011;14149;53.562;10.032;2022-12-07T03:27:44;8.97;;;4.00;;
5989;SDS011;14149;53.562;10.032;2022-12-07T03:30:17;12.53;;;3.73;;
5989;SDS011;14149;53.562;10.032;2022-12-07T03:33:03;11.50;;;3.37;;
5989;SDS011;14149;53.562;10.032;2022-12-07T03:35:36;9.97;;;3.90;;
5989;SDS011;14149;53.562;10.032;2022-12-07T03:38:14;8.63;;;3.90;;
5989;SDS011;14149;53.562;10.032;2022-12-07T03:43:07;7.43;;;3.30;;
5989;SDS011;14149;53.562;10.032;2022-12-07T03:45:38;8.00;;;3.00;;
5989;SDS011;14149;53.562;10.032;2022-12-07T03:48:52;7.10;;;2.40;;
5989;SDS011;14149;53.562;10.032;2022-12-07T03:53:34;6.80;;;2.93;;
5989;SDS011;14149;53.562;10.032;2022-12-07T03:56:02;11.20;;;3.50;;
5989;SDS011;14149;53.562;10.032;2022-12-07T03:58:28;6.20;;;2.80;;
5989;SDS011;14149;53.562;10.032;2022-12-07T04:00:55;5.87;;;2.60;;
5989;SDS011;14149;53.562;10.032;2022-12-07T04:03:21;6.33;;;2.87;;
5989;SDS011;14149;53.562;10.032;2022-12-07T04:05:47;8.90;;;3.57;;
5989;SDS011;14149;53.562;10.032;2022-12-07T04:08:14;15.53;;;3.17;;
5989;SDS011;14149;53.562;10.032;2022-12-07T04:10:40;6.83;;;2.80;;
5989;SDS011;14149;53.562;10.032;2022-12-07T04:13:06;6.87;;;2.67;;
5989;SDS011;14149;53.562;10.032;2022-12-07T04:15:32;5.30;;;2.27;;
5989;SDS011;14149;53.562;10.032;2022-12-07T04:17:58;10.83;;;2.87;;
5989;SDS011;14149;53.562;10.032;2022-12-07T04:20:24;5.87;;;2.53;;
5989;SDS011;14149;53.562;10.032;2022-12-07T04:22:50;8.40;;;3.07;;
5989;SDS011;14149;53.562;10.032;2022-12-07T04:25:17;6.40;;;3.00;;
5989;SDS011;14149;53.562;10.032;2022-12-07T04:27:43;6.27;;;3.07;;
5989;SDS011;14149;53.562;10.032;2022-12-07T04:30:09;8.63;;;2.97;;
5989;SDS011;14149;53.562;10.032;2022-12-07T04:32:35;6.87;;;3.00;;
5989;SDS011;14149;53.562;10.032;2022-12-07T04:35:01;7.17;;;3.10;;
5989;SDS011;14149;53.562;10.032;2022-12-07T04:37:27;8.90;;;3.07;;
5989;SDS011;14149;53.562;10.032;2022-12-07T04:39:53;7.60;;;3.53;;
5989;SDS011;14149;53.562;10.032;2022-12-07T04:42:19;6.40;;;3.20;;
5989;SDS011;14149;53.562;10.032;2022-12-07T04:44:45;7.43;;;3.00;;
5989;SDS011;14149;53.562;10.032;2022-12-07T04:47:12;8.30;;;3.60;;
5989;SDS011;14149;53.562;10.032;2022-12-07T04:49:38;6.93;;;2.90;;
5989;SDS011;14149;53.562;10.032;2022-12-07T04:52:04;9.33;;;3.43;;
5989;SDS011;14149;53.562;10.032;2022-12-07T04:54:30;8.77;;;3.20;;
5989;SDS011;14149;53.562;10.032;2022-12-07T04:56:56;8.57;;;3.20;;
5989;SDS011;14149;53.562;10.032;2022-12-07T04:59:22;9.03;;;3.70;;
5989;SDS011;14149;53.562;10.032;2022-12-07T05:01:48;9.23;;;3.50;;
5989;SDS011;14149;53.562;10.032;2022-12-07T05:04:14;9.67;;;3.87;;
5989;SDS011;14149;53.562;10.032;2022-12-07T05:06:41;7.00;;;3.47;;
5989;SDS011;14149;53.562;10.032;2022-12-07T05:09:07;7.70;;;3.80;;
5989;SDS011;14149;53.562;10.032;2022-12-07T05:11:33;9.20;;;4.13;;
5989;SDS011;14149;53.562;10.032;2022-12-07T05:14:04;10.90;;;3.60;;
5989;SDS011;14149;53.562;10.032;2022-12-07T05:16:30;9.70;;;3.63;;
5989;SDS011;14149;53.562;10.032;2022-12-07T05:18:57;6.50;;;3.23;;
5989;SDS011;14149;53.562;10.032;2022-12-07T05:21:23;6.50;;;3.20;;
5989;SDS011;14149;53.562;10.032;2022-12-07T05:23:49;6.50;;;3.20;;
5989;SDS011;14149;53.562;10.032;2022-12-07T05:26:15;8.17;;;4.00;;
5989;SDS011;14149;53.562;10.032;2022-12-07T05:28:42;7.13;;;3.43;;
5989;SDS011;14149;53.562;10.032;2022-12-07T05:31:08;7.50;;;4.07;;
5989;SDS011;14149;53.562;10.032;2022-12-07T05:33:34;8.60;;;3.70;;
5989;SDS011;14149;53.562;10.032;2022-12-07T05:36:01;9.30;;;4.20;;
5989;SDS011;14149;53.562;10.032;2022-12-07T05:38:31;8.43;;;3.80;;
5989;SDS011;14149;53.562;10.032;2022-12-07T05:41:00;7.43;;;3.77;;
5989;SDS011;14149;53.562;10.032;2022-12-07T05:43:27;8.50;;;4.40;;
5989;SDS011;14149;53.562;10.032;2022-12-07T05:45:53;11.90;;;4.03;;
5989;SDS011;14149;53.562;10.032;2022-12-07T05:48:20;8.10;;;3.90;;
5989;SDS011;14149;53.562;10.032;2022-12-07T05:50:49;14.73;;;4.60;;
5989;SDS011;14149;53.562;10.032;2022-12-07T05:53:15;8.43;;;3.60;;
5989;SDS011;14149;53.562;10.032;2022-12-07T05:55:41;9.60;;;3.90;;
5989;SDS011;14149;53.562;10.032;2022-12-07T05:58:07;7.50;;;4.00;;
5989;SDS011;14149;53.562;10.032;2022-12-07T06:00:54;8.60;;;4.10;;
5989;SDS011;14149;53.562;10.032;2022-12-07T06:03:20;9.00;;;3.87;;
5989;SDS011;14149;53.562;10.032;2022-12-07T06:05:46;7.40;;;4.17;;
5989;SDS011;14149;53.562;10.032;2022-12-07T06:08:12;8.00;;;4.50;;
5989;SDS011;14149;53.562;10.032;2022-12-07T06:10:39;10.57;;;4.57;;
5989;SDS011;14149;53.562;10.032;2022-12-07T06:13:06;7.93;;;3.87;;
5989;SDS011;14149;53.562;10.032;2022-12-07T06:15:35;7.33;;;3.97;;
5989;SDS011;14149;53.562;10.032;2022-12-07T06:18:01;8.40;;;3.97;;
5989;SDS011;14149;53.562;10.032;2022-12-07T06:20:27;12.87;;;4.07;;
5989;SDS011;14149;53.562;10.032;2022-12-07T06:22:53;9.87;;;4.13;;
5989;SDS011;14149;53.562;10.032;2022-12-07T06:25:19;6.93;;;3.37;;
5989;SDS011;14149;53.562;10.032;2022-12-07T06:27:45;8.63;;;3.50;;
5989;SDS011;14149;53.562;10.032;2022-12-07T06:30:11;8.70;;;3.87;;
5989;SDS011;14149;53.562;10.032;2022-12-07T06:32:37;8.90;;;3.77;;
5989;SDS011;14149;53.562;10.032;2022-12-07T06:35:04;8.90;;;3.80;;
5989;SDS011;14149;53.562;10.032;2022-12-07T06:37:30;7.07;;;3.40;;
5989;SDS011;14149;53.562;10.032;2022-12-07T06:39:56;8.73;;;4.13;;
5989;SDS011;14149;53.562;10.032;2022-12-07T06:42:22;8.77;;;3.53;;
5989;SDS011;14149;53.562;10.032;2022-12-07T06:44:48;6.70;;;3.60;;
5989;SDS011;14149;53.562;10.032;2022-12-07T06:47:14;11.00;;;3.23;;
5989;SDS011;14149;53.562;10.032;2022-12-07T06:49:40;10.03;;;3.50;;
5989;SDS011;14149;53.562;10.032;2022-12-07T06:52:07;7.47;;;3.10;;
5989;SDS011;14149;53.562;10.032;2022-12-07T06:54:33;9.13;;;3.23;;
5989;SDS011;14149;53.562;10.032;2022-12-07T06:56:59;7.23;;;3.27;;
5989;SDS011;14149;53.562;10.032;2022-12-07T06:59:25;10.30;;;3.23;;
5989;SDS011;14149;53.562;10.032;2022-12-07T07:01:51;7.80;;;2.80;;
5989;SDS011;14149;53.562;10.032;2022-12-07T07:04:17;8.67;;;3.07;;
5989;SDS011;14149;53.562;10.032;2022-12-07T07:06:43;7.07;;;3.20;;
5989;SDS011;14149;53.562;10.032;2022-12-07T07:09:09;5.97;;;2.70;;
5989;SDS011;14149;53.562;10.032;2022-12-07T07:11:35;6.60;;;3.00;;
5989;SDS011;14149;53.562;10.032;2022-12-07T07:14:01;5.90;;;3.10;;
5989;SDS011;14149;53.562;10.032;2022-12-07T07:16:29;7.73;;;3.17;;
5989;SDS011;14149;53.562;10.032;2022-12-07T07:18:56;9.03;;;3.60;;
5989;SDS011;14149;53.562;10.032;2022-12-07T07:21:22;7.10;;;3.17;;
5989;SDS011;14149;53.562;10.032;2022-12-07T07:23:48;8.03;;;3.00;;
5989;SDS011;14149;53.562;10.032;2022-12-07T07:26:14;9.40;;;3.27;;
5989;SDS011;14149;53.562;10.032;2022-12-07T07:28:40;8.50;;;3.00;;
5989;SDS011;14149;53.562;10.032;2022-12-07T07:31:06;6.73;;;3.13;;
5989;SDS011;14149;53.562;10.032;2022-12-07T07:33:32;10.13;;;4.00;;
5989;SDS011;14149;53.562;10.032;2022-12-07T07:35:58;6.80;;;3.17;;
5989;SDS011;14149;53.562;10.032;2022-12-07T07:38:25;7.47;;;3.30;;
5989;SDS011;14149;53.562;10.032;2022-12-07T07:40:51;8.83;;;3.27;;
5989;SDS011;14149;53.562;10.032;2022-12-07T07:43:17;5.90;;;2.50;;
5989;SDS011;14149;53.562;10.032;2022-12-07T07:45:43;6.80;;;2.80;;
5989;SDS011;14149;53.562;10.032;2022-12-07T07:48:10;7.70;;;3.00;;
5989;SDS011;14149;53.562;10.032;2022-12-07T07:50:36;6.30;;;2.60;;
5989;SDS011;14149;53.562;10.032;2022-12-07T07:53:02;6.80;;;3.07;;
5989;SDS011;14149;53.562;10.032;2022-12-07T07:55:28;7.33;;;2.80;;
5989;SDS011;14149;53.562;10.032;2022-12-07T07:57:54;13.63;;;3.40;;
5989;SDS011;14149;53.562;10.032;2022-12-07T08:00:21;8.00;;;2.83;;
5989;SDS011;14149;53.562;10.032;2022-12-07T08:02:47;9.40;;;3.00;;
5989;SDS011;14149;53.562;10.032;2022-12-07T08:05:15;6.30;;;2.90;;
5989;SDS011;14149;53.562;10.032;2022-12-07T08:07:41;10.73;;;2.73;;
5989;SDS011;14149;53.562;10.032;2022-12-07T08:10:09;8.07;;;3.40;;
5989;SDS011;14149;53.562;10.032;2022-12-07T08:12:36;8.00;;;3.27;;
5989;SDS011;14149;53.562;10.032;2022-12-07T08:15:22;7.57;;;3.30;;
5989;SDS011;14149;53.562;10.032;2022-12-07T08:17:49;8.90;;;3.20;;
5989;SDS011;14149;53.562;10.032;2022-12-07T08:20:15;8.10;;;3.37;;
5989;SDS011;14149;53.562;10.032;2022-12-07T08:22:41;7.03;;;2.97;;
5989;SDS011;14149;53.562;10.032;2022-12-07T08:25:07;11.40;;;3.00;;
5989;SDS011;14149;53.562;10.032;2022-12-07T08:27:33;7.10;;;3.17;;
5989;SDS011;14149;53.562;10.032;2022-12-07T08:29:59;10.47;;;3.63;;
5989;SDS011;14149;53.562;10.032;2022-12-07T08:32:25;8.97;;;3.57;;
5989;SDS011;14149;53.562;10.032;2022-12-07T08:34:52;8.87;;;3.63;;
5989;SDS011;14149;53.562;10.032;2022-12-07T08:37:18;7.27;;;3.27;;
5989;SDS011;14149;53.562;10.032;2022-12-07T08:39:44;7.43;;;3.10;;
5989;SDS011;14149;53.562;10.032;2022-12-07T08:42:10;11.83;;;3.33;;
5989;SDS011;14149;53.562;10.032;2022-12-07T08:44:36;7.00;;;3.23;;
5989;SDS011;14149;53.562;10.032;2022-12-07T08:47:03;7.53;;;2.90;;
5989;SDS011;14149;53.562;10.032;2022-12-07T08:49:31;7.50;;;2.47;;
5989;SDS011;14149;53.562;10.032;2022-12-07T08:51:59;5.57;;;2.40;;
5989;SDS011;14149;53.562;10.032;2022-12-07T08:54:25;6.30;;;2.67;;
5989;SDS011;14149;53.562;10.032;2022-12-07T08:56:51;6.77;;;3.43;;
5989;SDS011;14149;53.562;10.032;2022-12-07T08:59:19;9.77;;;3.57;;
5989;SDS011;14149;53.562;10.032;2022-12-07T09:01:45;6.93;;;3.10;;
5989;SDS011;14149;53.562;10.032;2022-12-07T09:04:12;11.10;;;3.50;;
5989;SDS011;14149;53.562;10.032;2022-12-07T09:06:38;8.87;;;3.13;;
5989;SDS011;14149;53.562;10.032;2022-12-07T09:09:04;9.83;;;3.30;;
5989;SDS011;14149;53.562;10.032;2022-12-07T09:11:31;9.67;;;3.37;;
5989;SDS011;14149;53.562;10.032;2022-12-07T09:13:57;8.70;;;3.63;;
5989;SDS011;14149;53.562;10.032;2022-12-07T09:16:23;8.40;;;2.90;;
5989;SDS011;14149;53.562;10.032;2022-12-07T09:18:49;8.00;;;3.30;;
5989;SDS011;14149;53.562;10.032;2022-12-07T09:21:15;9.00;;;3.73;;
5989;SDS011;14149;53.562;10.032;2022-12-07T09:23:42;7.77;;;3.37;;
5989;SDS011;14149;53.562;10.032;2022-12-07T09:26:08;9.60;;;3.00;;
5989;SDS011;14149;53.562;10.032;2022-12-07T09:28:34;9.33;;;3.50;;
5989;SDS011;14149;53.562;10.032;2022-12-07T09:31:01;11.80;;;3.40;;
5989;SDS011;14149;53.562;10.032;2022-12-07T09:33:28;7.50;;;2.60;;
5989;SDS011;14149;53.562;10.032;2022-12-07T09:35:54;5.80;;;2.70;;
5989;SDS011;14149;53.562;10.032;2022-12-07T09:38:20;9.57;;;3.60;;
5989;SDS011;14149;53.562;10.032;2022-12-07T09:40:46;13.10;;;4.40;;
5989;SDS011;14149;53.562;10.032;2022-12-07T09:43:15;6.70;;;2.63;;
5989;SDS011;14149;53.562;10.032;2022-12-07T09:45:41;11.90;;;3.50;;
5989;SDS011;14149;53.562;10.032;2022-12-07T09:48:18;6.80;;;2.80;;
5989;SDS011;14149;53.562;10.032;2022-12-07T09:50:46;8.40;;;3.10;;
5989;SDS011;14149;53.562;10.032;2022-12-07T09:53:14;9.50;;;3.00;;
5989;SDS011;14149;53.562;10.032;2022-12-07T09:55:41;7.40;;;3.70;;
5989;SDS011;14149;53.562;10.032;2022-12-07T09:58:12;9.33;;;2.43;;
5989;SDS011;14149;53.562;10.032;2022-12-07T10:00:43;6.67;;;3.03;;
5989;SDS011;14149;53.562;10.032;2022-12-07T10:03:10;5.67;;;2.97;;
5989;SDS011;14149;53.562;10.032;2022-12-07T10:05:38;11.53;;;3.83;;
5989;SDS011;14149;53.562;10.032;2022-12-07T10:08:07;8.70;;;2.93;;
5989;SDS011;14149;53.562;10.032;2022-12-07T10:10:35;11.87;;;3.00;;
5989;SDS011;14149;53.562;10.032;2022-12-07T10:13:09;6.53;;;2.83;;
5989;SDS011;14149;53.562;10.032;2022-12-07T10:15:47;7.80;;;2.53;;
5989;SDS011;14149;53.562;10.032;2022-12-07T10:23:27;10.83;;;2.97;;
5989;SDS011;14149;53.562;10.032;2022-12-07T10:25:54;14.73;;;5.47;;
5989;SDS011;14149;53.562;10.032;2022-12-07T10:28:20;7.93;;;3.10;;
5989;SDS011;14149;53.562;10.032;2022-12-07T10:33:48;7.50;;;2.80;;
5989;SDS011;14149;53.562;10.032;2022-12-07T10:38:58;7.20;;;3.00;;
5989;SDS011;14149;53.562;10.032;2022-12-07T10:41:25;9.43;;;2.83;;
5989;SDS011;14149;53.562;10.032;2022-12-07T10:43:53;5.53;;;2.43;;
5989;SDS011;14149;53.562;10.032;2022-12-07T10:46:26;13.30;;;4.03;;
5989;SDS011;14149;53.562;10.032;2022-12-07T10:48:59;7.07;;;2.70;;
5989;SDS011;14149;53.562;10.032;2022-12-07T10:51:53;9.07;;;2.60;;
5989;SDS011;14149;53.562;10.032;2022-12-07T10:57:04;8.27;;;2.23;;
5989;SDS011;14149;53.562;10.032;2022-12-07T11:22:29;7.30;;;3.23;;
5989;SDS011;14149;53.562;10.032;2022-12-07T11:27:48;6.20;;;2.00;;
5989;SDS011;14149;53.562;10.032;2022-12-07T11:30:18;7.83;;;2.80;;
5989;SDS011;14149;53.562;10.032;2022-12-07T11:33:10;10.00;;;2.57;;
5989;SDS011;14149;53.562;10.032;2022-12-07T11:35:49;7.43;;;2.07;;
5989;SDS011;14149;53.562;10.032;2022-12-07T11:38:22;12.33;;;2.90;;
5989;SDS011;14149;53.562;10.032;2022-12-07T11:40:49;8.07;;;2.80;;
5989;SDS011;14149;53.562;10.032;2022-12-07T11:45:43;13.83;;;3.40;;
5989;SDS011;14149;53.562;10.032;2022-12-07T11:48:12;15.43;;;4.73;;
5989;SDS011;14149;53.562;10.032;2022-12-07T11:50:42;5.90;;;2.50;;
5989;SDS011;14149;53.562;10.032;2022-12-07T11:55:40;7.30;;;2.40;;
5989;SDS011;14149;53.562;10.032;2022-12-07T12:00:54;6.53;;;2.43;;
5989;SDS011;14149;53.562;10.032;2022-12-07T12:03:31;18.13;;;2.97;;
5989;SDS011;14149;53.562;10.032;2022-12-07T12:05:59;6.70;;;2.10;;
5989;SDS011;14149;53.562;10.032;2022-12-07T12:08:30;15.87;;;3.20;;
5989;SDS011;14149;53.562;10.032;2022-12-07T12:13:37;10.63;;;2.30;;
5989;SDS011;14149;53.562;10.032;2022-12-07T12:16:22;10.03;;;2.67;;
5989;SDS011;14149;53.562;10.032;2022-12-07T12:21:20;5.90;;;2.60;;
5989;SDS011;14149;53.562;10.032;2022-12-07T12:23:55;7.00;;;2.30;;
5989;SDS011;14149;53.562;10.032;2022-12-07T12:26:23;12.33;;;2.50;;
5989;SDS011;14149;53.562;10.032;2022-12-07T12:29:01;13.60;;;2.93;;
5989;SDS011;14149;53.562;10.032;2022-12-07T12:33:58;6.93;;;2.57;;
5989;SDS011;14149;53.562;10.032;2022-12-07T12:51:47;13.00;;;3.67;;
5989;SDS011;14149;53.562;10.032;2022-12-07T13:02:15;9.83;;;2.43;;
5989;SDS011;14149;53.562;10.032;2022-12-07T13:10:02;8.83;;;2.80;;
5989;SDS011;14149;53.562;10.032;2022-12-07T13:12:28;6.67;;;2.40;;
5989;SDS011;14149;53.562;10.032;2022-12-07T13:14:56;7.47;;;2.23;;
5989;SDS011;14149;53.562;10.032;2022-12-07T13:25:05;8.40;;;2.50;;
5989;SDS011;14149;53.562;10.032;2022-12-07T13:27:33;6.13;;;2.60;;
5989;SDS011;14149;53.562;10.032;2022-12-07T13:30:00;9.70;;;2.87;;
5989;SDS011;14149;53.562;10.032;2022-12-07T13:32:28;8.40;;;2.37;;
5989;SDS011;14149;53.562;10.032;2022-12-07T13:34:55;11.70;;;3.40;;
5989;SDS011;14149;53.562;10.032;2022-12-07T13:39:49;10.13;;;2.83;;
5989;SDS011;14149;53.562;10.032;2022-12-07T13:44:47;8.00;;;2.53;;
5989;SDS011;14149;53.562;10.032;2022-12-07T13:47:16;8.67;;;2.83;;
5989;SDS011;14149;53.562;10.032;2022-12-07T13:49:53;7.30;;;2.30;;
5989;SDS011;14149;53.562;10.032;2022-12-07T13:57:12;6.43;;;2.43;;
5989;SDS011;14149;53.562;10.032;2022-12-07T13:59:38;9.87;;;2.23;;
5989;SDS011;14149;53.562;10.032;2022-12-07T14:02:17;8.97;;;2.50;;
5989;SDS011;14149;53.562;10.032;2022-12-07T14:04:45;9.17;;;2.20;;
5989;SDS011;14149;53.562;10.032;2022-12-07T14:07:27;6.27;;;2.30;;
5989;SDS011;14149;53.562;10.032;2022-12-07T14:10:03;7.47;;;2.63;;
5989;SDS011;14149;53.562;10.032;2022-12-07T14:12:31;7.20;;;2.40;;
5989;SDS011;14149;53.562;10.032;2022-12-07T14:14:57;6.80;;;2.30;;
5989;SDS011;14149;53.562;10.032;2022-12-07T14:17:25;5.63;;;2.53;;
5989;SDS011;14149;53.562;10.032;2022-12-07T14:24:50;8.13;;;2.20;;
5989;SDS011;14149;53.562;10.032;2022-12-07T14:27:17;6.80;;;2.53;;
5989;SDS011;14149;53.562;10.032;2022-12-07T14:29:43;8.80;;;2.63;;
5989;SDS011;14149;53.562;10.032;2022-12-07T14:37:20;8.20;;;2.07;;
5989;SDS011;14149;53.562;10.032;2022-12-07T14:39:46;6.73;;;2.10;;
5989;SDS011;14149;53.562;10.032;2022-12-07T14:42:12;8.47;;;2.30;;
5989;SDS011;14149;53.562;10.032;2022-12-07T14:44:38;8.67;;;2.60;;
5989;SDS011;14149;53.562;10.032;2022-12-07T14:47:04;6.70;;;2.20;;
5989;SDS011;14149;53.562;10.032;2022-12-07T14:49:31;7.00;;;2.03;;
5989;SDS011;14149;53.562;10.032;2022-12-07T14:51:57;7.43;;;2.57;;
5989;SDS011;14149;53.562;10.032;2022-12-07T14:54:24;6.93;;;2.17;;
5989;SDS011;14149;53.562;10.032;2022-12-07T14:56:52;8.97;;;2.47;;
5989;SDS011;14149;53.562;10.032;2022-12-07T14:59:18;7.97;;;2.73;;
5989;SDS011;14149;53.562;10.032;2022-12-07T15:01:45;6.43;;;2.63;;
5989;SDS011;14149;53.562;10.032;2022-12-07T15:04:11;6.47;;;2.30;;
5989;SDS011;14149;53.562;10.032;2022-12-07T15:06:37;11.40;;;2.60;;
5989;SDS011;14149;53.562;10.032;2022-12-07T15:09:03;6.20;;;2.77;;
5989;SDS011;14149;53.562;10.032;2022-12-07T15:11:30;5.73;;;2.30;;
5989;SDS011;14149;53.562;10.032;2022-12-07T15:13:56;5.40;;;2.40;;
5989;SDS011;14149;53.562;10.032;2022-12-07T15:16:34;13.10;;;2.60;;
5989;SDS011;14149;53.562;10.032;2022-12-07T15:19:01;6.70;;;2.30;;
5989;SDS011;14149;53.562;10.032;2022-12-07T15:21:27;15.40;;;2.97;;
5989;SDS011;14149;53.562;10.032;2022-12-07T15:23:54;7.30;;;2.80;;
5989;SDS011;14149;53.562;10.032;2022-12-07T15:26:20;11.13;;;3.10;;
5989;SDS011;14149;53.562;10.032;2022-12-07T15:28:46;10.37;;;2.50;;
5989;SDS011;14149;53.562;10.032;2022-12-07T15:31:13;7.67;;;2.60;;
5989;SDS011;14149;53.562;10.032;2022-12-07T15:33:39;6.93;;;2.67;;
5989;SDS011;14149;53.562;10.032;2022-12-07T15:36:05;6.23;;;2.20;;
5989;SDS011;14149;53.562;10.032;2022-12-07T15:38:32;7.37;;;2.77;;
5989;SDS011;14149;53.562;10.032;2022-12-07T15:40:58;6.90;;;2.47;;
5989;SDS011;14149;53.562;10.032;2022-12-07T15:43:24;5.53;;;2.50;;
5989;SDS011;14149;53.562;10.032;2022-12-07T15:46:08;7.20;;;2.40;;
5989;SDS011;14149;53.562;10.032;2022-12-07T15:48:34;7.33;;;2.20;;
5989;SDS011;14149;53.562;10.032;2022-12-07T15:51:07;7.03;;;2.53;;
5989;SDS011;14149;53.562;10.032;2022-12-07T15:53:34;5.50;;;2.10;;
5989;SDS011;14149;53.562;10.032;2022-12-07T15:56:00;6.03;;;2.40;;
5989;SDS011;14149;53.562;10.032;2022-12-07T15:58:26;6.40;;;2.57;;
5989;SDS011;14149;53.562;10.032;2022-12-07T16:00:53;7.03;;;3.10;;
5989;SDS011;14149;53.562;10.032;2022-12-07T16:03:19;5.70;;;2.40;;
5989;SDS011;14149;53.562;10.032;2022-12-07T16:05:48;5.57;;;2.37;;
5989;SDS011;14149;53.562;10.032;2022-12-07T16:08:14;5.60;;;2.17;;
5989;SDS011;14149;53.562;10.032;2022-12-07T16:10:40;6.93;;;2.60;;
5989;SDS011;14149;53.562;10.032;2022-12-07T16:13:08;5.93;;;2.40;;
5989;SDS011;14149;53.562;10.032;2022-12-07T16:15:38;6.03;;;2.30;;
5989;SDS011;14149;53.562;10.032;2022-12-07T16:18:04;6.10;;;2.70;;
5989;SDS011;14149;53.562;10.032;2022-12-07T16:20:30;6.17;;;2.30;;
5989;SDS011;14149;53.562;10.032;2022-12-07T16:22:56;6.30;;;3.13;;
5989;SDS011;14149;53.562;10.032;2022-12-07T16:25:22;6.53;;;3.37;;
5989;SDS011;14149;53.562;10.032;2022-12-07T16:27:49;6.30;;;2.60;;
5989;SDS011;14149;53.562;10.032;2022-12-07T16:30:15;8.27;;;2.57;;
5989;SDS011;14149;53.562;10.032;2022-12-07T16:32:41;6.10;;;2.60;;
5989;SDS011;14149;53.562;10.032;2022-12-07T16:35:08;7.57;;;3.20;;
5989;SDS011;14149;53.562;10.032;2022-12-07T16:37:34;7.40;;;3.30;;
5989;SDS011;14149;53.562;10.032;2022-12-07T16:40:00;11.17;;;4.37;;
5989;SDS011;14149;53.562;10.032;2022-12-07T16:42:26;9.83;;;4.27;;
5989;SDS011;14149;53.562;10.032;2022-12-07T16:44:57;12.70;;;5.17;;
5989;SDS011;14149;53.562;10.032;2022-12-07T16:47:23;9.03;;;3.40;;
5989;SDS011;14149;53.562;10.032;2022-12-07T16:49:49;7.97;;;3.70;;
5989;SDS011;14149;53.562;10.032;2022-12-07T16:52:15;7.97;;;3.27;;
5989;SDS011;14149;53.562;10.032;2022-12-07T16:54:42;9.63;;;3.90;;
5989;SDS011;14149;53.562;10.032;2022-12-07T16:57:08;7.83;;;3.13;;
5989;SDS011;14149;53.562;10.032;2022-12-07T16:59:34;11.03;;;3.60;;
5989;SDS011;14149;53.562;10.032;2022-12-07T17:02:00;15.60;;;3.23;;
5989;SDS011;14149;53.562;10.032;2022-12-07T17:04:27;10.33;;;3.63;;
5989;SDS011;14149;53.562;10.032;2022-12-07T17:06:53;8.80;;;2.90;;
5989;SDS011;14149;53.562;10.032;2022-12-07T17:09:19;7.30;;;3.23;;
5989;SDS011;14149;53.562;10.032;2022-12-07T17:11:45;11.37;;;3.70;;